createdAt,value
2019-05-13T00:00:44.723Z,68.46
2019-05-13T00:03:14.093Z,68.53
2019-05-13T00:05:44.578Z,68.58
2019-05-13T00:08:14.265Z,68.67
2019-05-13T00:10:44.135Z,68.73
2019-05-13T00:13:14.781Z,68.83
2019-05-13T00:15:44.723Z,69.02
2019-05-13T00:18:14.573Z,69.24
2019-05-13T00:20:44.422Z,69.31
2019-05-13T00:23:14.443Z,69.52
2019-05-13T00:25:44.633Z,69.61
2019-05-13T00:28:14.468Z,69.62
2019-05-13T00:30:44.743Z,69.71
2019-05-13T00:33:14.285Z,69.75
2019-05-13T00:35:44.200Z,69.84
2019-05-13T00:38:14.381Z,69.95
2019-05-13T00:40:44.371Z,70.03
2019-05-13T00:43:14.546Z,70.11
2019-05-13T00:45:44.758Z,70.15
2019-05-13T00:48:14.501Z,70.11
2019-05-13T00:50:44.399Z,70.16
2019-05-13T00:53:14.180Z,70.12
2019-05-13T00:55:44.498Z,70.16
2019-05-13T00:58:14.272Z,70.21
2019-05-13T01:00:44.847Z,70.27
2019-05-13T01:03:14.579Z,70.41
2019-05-13T01:05:44.641Z,70.57
2019-05-13T01:08:14.976Z,70.63
2019-05-13T01:10:45.169Z,70.62
2019-05-13T01:13:14.731Z,70.73
2019-05-13T01:15:44.573Z,70.73
2019-05-13T01:18:14.375Z,70.79
2019-05-13T01:20:44.093Z,70.87
2019-05-13T01:23:14.129Z,70.99
2019-05-13T01:25:44.581Z,71.20
2019-05-13T01:28:15.347Z,71.29
2019-05-13T01:30:44.724Z,71.39
2019-05-13T01:33:14.587Z,71.53
2019-05-13T01:35:44.724Z,71.70
2019-05-13T01:38:13.965Z,71.81
2019-05-13T01:40:44.001Z,71.89
2019-05-13T01:43:14.591Z,71.99
2019-05-13T01:45:44.342Z,72.11
2019-05-13T01:48:14.300Z,72.18
2019-05-13T01:50:44.676Z,72.28
2019-05-13T01:53:14.680Z,72.36
2019-05-13T01:55:44.458Z,72.42
2019-05-13T01:58:14.761Z,72.47
2019-05-13T02:00:44.619Z,72.49
2019-05-13T02:03:14.721Z,72.51
2019-05-13T02:05:44.518Z,72.48
2019-05-13T02:08:14.458Z,72.48
2019-05-13T02:10:54.653Z,72.48
2019-05-13T02:13:25.022Z,72.43
2019-05-13T02:15:55.746Z,72.31
2019-05-13T02:18:25.889Z,72.28
2019-05-13T02:20:55.958Z,72.38
2019-05-13T02:23:25.737Z,72.41
2019-05-13T02:25:55.115Z,72.42
2019-05-13T02:28:25.222Z,72.37
2019-05-13T02:30:56.491Z,72.35
2019-05-13T02:33:26.411Z,72.33
2019-05-13T02:35:55.553Z,72.40
2019-05-13T02:38:30.214Z,72.40
2019-05-13T02:40:55.960Z,72.42
2019-05-13T02:43:25.195Z,72.32
2019-05-13T02:45:54.872Z,72.27
2019-05-13T02:48:24.524Z,72.21
2019-05-13T02:50:54.703Z,72.19
2019-05-13T02:53:24.568Z,72.18
2019-05-13T02:55:54.533Z,72.14
2019-05-13T02:58:25.098Z,72.00
2019-05-13T03:00:54.771Z,71.85
2019-05-13T03:03:24.207Z,71.70
2019-05-13T03:05:53.778Z,71.42
2019-05-13T03:08:39.508Z,71.19
2019-05-13T03:10:54.408Z,70.84
2019-05-13T03:13:24.365Z,70.69
2019-05-13T03:16:13.644Z,70.55
2019-05-13T03:18:43.761Z,70.46
2019-05-13T03:21:13.620Z,70.42
2019-05-13T03:23:44.307Z,70.42
2019-05-13T03:26:13.861Z,70.39
2019-05-13T03:28:44.067Z,70.30
2019-05-13T03:31:16.589Z,70.19
2019-05-13T03:33:46.959Z,70.14
2019-05-13T03:36:18.097Z,70.07
2019-05-13T03:39:01.435Z,69.92
2019-05-13T03:41:22.526Z,69.76
2019-05-13T03:43:53.467Z,69.51
2019-05-13T03:46:24.566Z,69.36
2019-05-13T03:48:55.329Z,69.24
2019-05-13T03:51:24.777Z,69.15
2019-05-13T03:53:54.180Z,69.07
2019-05-13T03:56:24.189Z,69.09
2019-05-13T03:58:54.130Z,69.08
2019-05-13T04:01:23.845Z,69.19
2019-05-13T04:03:53.147Z,69.24
2019-05-13T04:06:23.663Z,69.33
2019-05-13T04:08:54.167Z,69.28
2019-05-13T04:11:24.175Z,69.25
2019-05-13T04:13:53.538Z,69.22
2019-05-13T04:16:23.946Z,69.02
2019-05-13T04:18:53.909Z,68.87
2019-05-13T04:21:23.782Z,68.79
2019-05-13T04:23:53.607Z,68.86
2019-05-13T04:26:23.835Z,68.93
2019-05-13T04:28:53.914Z,68.99
2019-05-13T04:31:23.275Z,68.97
2019-05-13T04:33:53.486Z,69.02
2019-05-13T04:36:23.866Z,69.12
2019-05-13T04:38:53.618Z,69.30
2019-05-13T04:41:23.369Z,69.49
2019-05-13T04:43:53.962Z,69.56
2019-05-13T04:46:23.712Z,69.71
2019-05-13T04:48:53.269Z,69.89
2019-05-13T04:51:23.182Z,70.05
2019-05-13T04:53:56.954Z,70.06
2019-05-13T04:56:24.152Z,70.09
2019-05-13T04:58:53.406Z,70.12
2019-05-13T05:02:05.030Z,70.08
2019-05-13T05:04:43.779Z,70.13
2019-05-13T05:07:42.067Z,70.13
2019-05-13T05:10:38.639Z,70.06
2019-05-13T05:13:36.410Z,69.92
2019-05-13T05:16:32.568Z,69.93
2019-05-13T05:19:23.638Z,69.81
2019-05-13T05:22:09.207Z,69.77
2019-05-13T05:24:52.119Z,69.74
2019-05-13T05:28:03.871Z,69.67
2019-05-13T05:31:06.407Z,69.56
2019-05-13T05:34:16.684Z,69.43
2019-05-13T05:37:11.801Z,69.35
2019-05-13T05:39:43.694Z,69.25
2019-05-13T05:42:16.229Z,69.15
2019-05-13T05:44:47.183Z,69.18
2019-05-13T05:47:21.331Z,69.26
2019-05-13T05:49:53.267Z,69.15
2019-05-13T05:52:24.474Z,69.03
2019-05-13T05:54:55.185Z,68.91
2019-05-13T05:57:26.384Z,68.75
2019-05-13T05:59:56.664Z,68.71
2019-05-13T06:02:28.838Z,68.55
2019-05-13T06:04:58.690Z,68.23
2019-05-13T06:07:28.434Z,67.91
2019-05-13T06:09:57.885Z,67.70
2019-05-13T06:12:28.425Z,67.37
2019-05-13T06:14:58.134Z,67.09
2019-05-13T06:17:27.538Z,66.47
2019-05-13T06:19:58.017Z,66.16
2019-05-13T06:22:27.441Z,65.90
2019-05-13T06:24:56.742Z,65.57
2019-05-13T06:27:26.077Z,65.16
2019-05-13T06:29:55.296Z,64.72
2019-05-13T06:32:26.540Z,64.52
2019-05-13T06:34:56.069Z,64.33
2019-05-13T06:37:25.501Z,64.20
2019-05-13T06:39:55.732Z,63.98
2019-05-13T06:42:25.070Z,63.94
2019-05-13T06:44:54.375Z,64.01
2019-05-13T06:47:23.593Z,63.88
2019-05-13T06:49:52.845Z,63.77
2019-05-13T06:52:22.314Z,63.51
2019-05-13T06:54:52.157Z,63.22
2019-05-13T06:57:22.141Z,63.18
2019-05-13T06:59:52.553Z,63.05
2019-05-13T07:02:22.229Z,62.58
2019-05-13T07:04:51.831Z,62.57
2019-05-13T07:07:22.073Z,62.42
2019-05-13T07:09:52.209Z,62.29
2019-05-13T07:12:22.023Z,62.25
2019-05-13T07:14:52.063Z,62.04
2019-05-13T07:17:22.369Z,61.75
2019-05-13T07:19:52.020Z,61.49
2019-05-13T07:22:22.981Z,61.31
2019-05-13T07:24:52.626Z,61.03
2019-05-13T07:27:22.960Z,60.68
2019-05-13T07:29:55.542Z,60.31
2019-05-13T07:32:23.755Z,60.11
2019-05-13T07:34:53.492Z,59.87
2019-05-13T07:37:23.534Z,59.52
2019-05-13T07:39:53.856Z,59.01
2019-05-13T07:42:23.173Z,58.46
2019-05-13T07:44:52.451Z,58.07
2019-05-13T07:47:22.432Z,57.95
2019-05-13T07:49:51.890Z,57.86
2019-05-13T07:52:22.758Z,57.75
2019-05-13T07:54:52.328Z,57.42
2019-05-13T07:57:21.650Z,57.38
2019-05-13T07:59:52.422Z,57.30
2019-05-13T08:02:22.081Z,57.23
2019-05-13T08:04:53.106Z,57.27
2019-05-13T08:07:22.783Z,57.41
2019-05-13T08:09:55.700Z,57.33
2019-05-13T08:12:23.296Z,57.24
2019-05-13T08:14:52.510Z,57.38
2019-05-13T08:17:22.493Z,57.52
2019-05-13T08:19:52.276Z,57.54
2019-05-13T08:22:22.536Z,57.66
2019-05-13T08:24:54.294Z,57.79
2019-05-13T08:27:30.368Z,58.06
2019-05-13T08:29:54.215Z,58.19
2019-05-13T08:32:23.535Z,58.40
2019-05-13T08:35:01.578Z,58.49
2019-05-13T08:37:23.910Z,58.53
2019-05-13T08:39:53.193Z,58.52
2019-05-13T08:42:23.496Z,58.27
2019-05-13T08:44:53.586Z,58.31
2019-05-13T08:47:22.796Z,58.24
2019-05-13T08:49:52.247Z,57.95
2019-05-13T08:52:22.046Z,57.66
2019-05-13T08:54:52.483Z,57.53
2019-05-13T08:57:22.383Z,57.32
2019-05-13T08:59:51.801Z,57.06
2019-05-13T09:02:22.153Z,56.80
2019-05-13T09:04:51.999Z,56.65
2019-05-13T09:07:24.206Z,56.45
2019-05-13T09:09:52.683Z,56.65
2019-05-13T09:14:53.114Z,56.19
2019-05-13T09:17:22.355Z,55.97
2019-05-13T09:19:52.178Z,55.37
2019-05-13T09:22:21.537Z,55.16
2019-05-13T09:27:22.605Z,54.81
2019-05-13T09:29:52.148Z,54.72
2019-05-13T09:32:21.699Z,54.23
2019-05-13T09:34:52.499Z,53.85
2019-05-13T09:37:22.593Z,53.75
2019-05-13T09:39:52.308Z,53.69
2019-05-13T09:42:21.840Z,53.54
2019-05-13T09:44:52.551Z,53.39
2019-05-13T09:47:22.361Z,53.58
2019-05-13T09:49:51.615Z,53.76
2019-05-13T09:52:23.226Z,53.63
2019-05-13T09:54:52.590Z,53.42
2019-05-13T09:57:22.120Z,53.47
2019-05-13T09:59:52.434Z,52.90
2019-05-13T10:02:21.972Z,52.77
2019-05-13T10:04:51.699Z,50.13
2019-05-13T10:07:22.926Z,47.43
2019-05-13T10:09:52.304Z,46.23
2019-05-13T10:12:24.324Z,45.15
2019-05-13T10:14:52.646Z,44.41
2019-05-13T10:17:22.354Z,42.77
2019-05-13T10:19:52.114Z,41.56
2019-05-13T10:22:22.171Z,41.39
2019-05-13T10:24:51.706Z,40.92
2019-05-13T10:27:22.358Z,40.19
2019-05-13T10:29:52.579Z,40.60
2019-05-13T10:32:22.348Z,41.11
2019-05-13T10:34:53.947Z,41.53
2019-05-13T10:37:23.265Z,41.45
2019-05-13T10:39:52.879Z,41.50
2019-05-13T10:42:22.492Z,41.57
2019-05-13T10:44:52.353Z,41.63
2019-05-13T10:47:22.710Z,41.35
2019-05-13T10:49:52.646Z,40.82
2019-05-13T10:52:22.947Z,40.30
2019-05-13T10:54:52.852Z,40.36
2019-05-13T10:57:22.424Z,40.16
2019-05-13T10:59:52.968Z,40.00
2019-05-13T11:02:22.370Z,39.83
2019-05-13T11:04:52.553Z,39.77
2019-05-13T11:07:22.590Z,39.12
2019-05-13T11:09:52.936Z,38.87
2019-05-13T11:12:28.038Z,38.73
2019-05-13T11:14:55.371Z,38.90
2019-05-13T11:17:30.884Z,39.17
2019-05-13T11:19:55.832Z,39.30
2019-05-13T11:22:25.059Z,39.51
2019-05-13T11:24:54.261Z,39.88
2019-05-13T11:27:23.761Z,39.59
2019-05-13T11:29:52.974Z,39.46
2019-05-13T11:32:22.448Z,39.15
2019-05-13T11:34:53.022Z,38.92
2019-05-13T11:37:23.350Z,38.80
2019-05-13T11:39:53.159Z,38.58
2019-05-13T11:42:22.876Z,38.16
2019-05-13T11:44:52.997Z,37.43
2019-05-13T11:47:22.525Z,37.01
2019-05-13T11:49:53.217Z,37.33
2019-05-13T11:52:22.837Z,37.48
2019-05-13T11:54:53.919Z,37.46
2019-05-13T11:57:23.528Z,37.65
2019-05-13T11:59:53.678Z,37.92
2019-05-13T12:02:23.537Z,38.33
2019-05-13T12:04:53.959Z,38.07
2019-05-13T12:07:23.733Z,38.11
2019-05-13T12:09:52.944Z,38.48
2019-05-13T12:12:25.058Z,37.67
2019-05-13T12:15:20.500Z,37.30
2019-05-13T12:17:24.288Z,36.66
2019-05-13T12:19:54.296Z,35.73
2019-05-13T12:22:24.236Z,34.17
2019-05-13T12:24:53.458Z,33.46
2019-05-13T12:27:23.565Z,33.23
2019-05-13T12:29:53.217Z,32.93
2019-05-13T12:32:22.670Z,32.79
2019-05-13T12:37:23.297Z,32.49
2019-05-13T12:39:53.417Z,33.21
2019-05-13T12:42:23.039Z,33.58
2019-05-13T12:45:08.985Z,33.73
2019-05-13T12:47:23.690Z,33.94
2019-05-13T12:49:53.016Z,34.29
2019-05-13T12:52:23.094Z,34.44
2019-05-13T12:54:53.082Z,34.51
2019-05-13T12:57:23.324Z,34.51
2019-05-13T12:59:52.815Z,34.42
2019-05-13T13:02:23.131Z,34.06
2019-05-13T13:05:10.775Z,33.61
2019-05-13T13:07:23.479Z,33.49
2019-05-13T13:09:54.071Z,33.08
2019-05-13T13:12:33.701Z,33.25
2019-05-13T13:14:54.908Z,33.15
2019-05-13T13:17:24.421Z,32.66
2019-05-13T13:19:56.805Z,31.50
2019-05-13T13:22:25.514Z,30.94
2019-05-13T13:24:57.393Z,30.65
2019-05-13T13:27:57.727Z,29.93
2019-05-13T13:30:03.279Z,29.56
2019-05-13T13:32:28.556Z,30.13
2019-05-13T13:34:57.785Z,30.36
2019-05-13T13:37:27.193Z,30.24
2019-05-13T13:39:56.775Z,30.76
2019-05-13T13:42:26.045Z,30.58
2019-05-13T13:44:55.474Z,30.51
2019-05-13T13:47:24.728Z,29.51
2019-05-13T13:49:54.000Z,28.65
2019-05-13T13:52:23.348Z,28.29
2019-05-13T13:55:02.147Z,27.81
2019-05-13T13:57:25.762Z,27.92
2019-05-13T14:00:20.835Z,28.07
2019-05-13T14:02:26.382Z,28.62
2019-05-13T14:04:56.225Z,29.14
2019-05-13T14:06:25.161Z,54.91
2019-05-13T14:06:33.066Z,32.64
2019-05-13T14:07:05.494Z,56.37
2019-05-13T14:07:34.387Z,29.28
2019-05-13T14:09:56.396Z,29.57
2019-05-13T14:12:25.741Z,29.84
2019-05-13T14:14:55.612Z,29.61
2019-05-13T14:17:24.929Z,29.65
2019-05-13T14:19:54.378Z,29.18
2019-05-13T14:22:23.643Z,28.17
2019-05-13T14:24:52.860Z,26.86
2019-05-13T14:27:22.501Z,26.35
2019-05-13T14:29:55.493Z,26.03
2019-05-13T14:32:24.904Z,26.81
2019-05-13T14:34:54.169Z,26.84
2019-05-13T14:37:23.405Z,26.75
2019-05-13T14:39:52.813Z,27.17
2019-05-13T14:42:22.865Z,27.34
2019-05-13T14:44:52.605Z,27.82
2019-05-13T14:47:22.328Z,28.08
2019-05-13T14:49:52.249Z,28.03
2019-05-13T14:52:22.354Z,27.79
2019-05-13T14:54:52.062Z,27.59
2019-05-13T14:57:21.908Z,26.28
2019-05-13T14:59:51.589Z,25.61
2019-05-13T15:02:21.034Z,25.03
2019-05-13T15:04:52.338Z,24.45
2019-05-13T15:07:21.762Z,25.16
2019-05-13T15:09:52.750Z,25.79
2019-05-13T15:12:21.980Z,26.51
2019-05-13T15:14:52.489Z,27.12
2019-05-13T15:17:22.105Z,27.05
2019-05-13T15:19:52.521Z,27.16
2019-05-13T15:22:22.718Z,27.32
2019-05-13T15:24:52.558Z,27.75
2019-05-13T15:27:22.427Z,28.18
2019-05-13T15:29:52.903Z,28.42
2019-05-13T15:32:22.174Z,28.69
2019-05-13T15:34:51.953Z,28.85
2019-05-13T15:37:21.728Z,29.03
2019-05-13T15:39:51.850Z,29.37
2019-05-13T15:42:21.518Z,29.58
2019-05-13T15:44:53.056Z,29.72
2019-05-13T15:47:24.000Z,29.86
2019-05-13T15:49:53.038Z,29.03
2019-05-13T15:52:23.366Z,28.81
2019-05-13T15:54:52.633Z,29.10
2019-05-13T15:57:22.162Z,29.49
2019-05-13T15:59:51.942Z,29.83
2019-05-13T16:02:22.603Z,30.25
2019-05-13T16:05:00.710Z,30.45
2019-05-13T16:07:23.271Z,30.81
2019-05-13T16:09:52.802Z,31.23
2019-05-13T16:12:22.207Z,31.48
2019-05-13T16:14:51.800Z,31.61
2019-05-13T16:17:30.606Z,31.94
2019-05-13T16:19:53.485Z,32.08
2019-05-13T16:22:23.267Z,32.42
2019-05-13T16:24:52.483Z,32.66
2019-05-13T16:27:22.373Z,33.09
2019-05-13T16:29:51.746Z,33.32
2019-05-13T16:32:22.719Z,33.22
2019-05-13T16:34:52.452Z,33.27
2019-05-13T16:37:22.067Z,33.21
2019-05-13T16:39:52.182Z,33.21
2019-05-13T16:42:22.469Z,33.40
2019-05-13T16:44:51.972Z,33.42
2019-05-13T16:47:21.383Z,33.25
2019-05-13T16:49:50.774Z,33.07
2019-05-13T16:52:22.076Z,33.43
2019-05-13T16:54:53.167Z,33.43
2019-05-13T16:57:22.187Z,33.59
2019-05-13T16:59:51.832Z,33.63
2019-05-13T17:02:21.885Z,33.63
2019-05-13T17:04:52.092Z,33.48
2019-05-13T17:07:21.502Z,33.48
2019-05-13T17:09:52.131Z,33.09
2019-05-13T17:12:21.578Z,32.99
2019-05-13T17:14:52.263Z,32.92
2019-05-13T17:17:21.913Z,32.93
2019-05-13T17:19:53.703Z,33.22
2019-05-13T17:22:22.115Z,34.98
2019-05-13T17:24:52.134Z,34.98
2019-05-13T17:27:21.538Z,35.48
2019-05-13T17:29:51.597Z,35.92
2019-05-13T17:32:22.221Z,36.19
2019-05-13T17:34:51.691Z,36.68
2019-05-13T17:37:22.120Z,37.05
2019-05-13T18:10:47.003Z,43.06
2019-05-13T18:13:16.155Z,42.97
2019-05-13T18:15:45.381Z,43.22
2019-05-13T18:18:14.909Z,43.53
2019-05-13T18:20:45.582Z,43.80
2019-05-13T18:23:14.927Z,44.02
2019-05-13T18:25:44.415Z,44.28
2019-05-13T18:28:27.505Z,44.54
2019-05-13T18:30:45.201Z,44.79
2019-05-13T18:33:15.142Z,45.18
2019-05-13T18:35:44.475Z,45.46
2019-05-13T18:38:14.606Z,45.62
2019-05-13T18:40:43.969Z,45.83
2019-05-13T18:43:13.209Z,45.96
2019-05-13T18:45:42.738Z,46.18
2019-05-13T18:48:12.367Z,46.48
2019-05-13T18:50:42.024Z,46.55
2019-05-13T18:53:11.482Z,46.67
2019-05-13T18:55:41.635Z,46.86
2019-05-13T18:58:11.751Z,46.98
2019-05-13T19:00:41.736Z,47.13
2019-05-13T19:03:12.442Z,47.31
2019-05-13T19:05:42.290Z,47.42
2019-05-13T19:08:13.684Z,47.53
2019-05-13T19:10:43.324Z,47.65
2019-05-13T19:13:12.755Z,47.87
2019-05-13T19:15:42.051Z,48.12
2019-05-13T19:18:12.245Z,48.19
2019-05-13T19:20:41.918Z,48.36
2019-05-13T19:23:11.924Z,48.57
2019-05-13T19:25:42.674Z,48.73
2019-05-13T19:28:12.119Z,48.94
2019-05-13T19:30:41.415Z,49.07
2019-05-13T19:33:12.423Z,49.21
2019-05-13T19:35:42.656Z,49.44
2019-05-13T19:38:12.290Z,49.65
2019-05-13T19:40:48.284Z,49.77
2019-05-13T19:43:44.865Z,49.98
2019-05-13T19:45:57.243Z,50.09
2019-05-13T19:48:32.348Z,50.25
2019-05-13T19:51:01.752Z,50.52
2019-05-13T19:53:31.921Z,50.79
2019-05-13T19:56:02.490Z,51.00
2019-05-13T19:58:33.526Z,51.27
2019-05-13T20:01:03.239Z,51.64
2019-05-13T20:03:32.673Z,51.84
2019-05-13T20:06:02.452Z,51.92
2019-05-13T20:08:32.294Z,52.16
2019-05-13T20:11:02.270Z,52.39
2019-05-13T20:13:34.025Z,52.61
2019-05-13T20:16:03.416Z,52.91
2019-05-13T20:18:32.636Z,53.06
2019-05-13T20:21:02.230Z,53.22
2019-05-13T20:23:32.034Z,53.41
2019-05-13T20:26:01.543Z,53.66
2019-05-13T20:28:31.671Z,54.01
2019-05-13T20:31:01.861Z,54.44
2019-05-13T20:33:32.124Z,54.76
2019-05-13T20:36:01.792Z,55.04
2019-05-13T20:38:31.707Z,55.55
2019-05-13T20:41:01.647Z,56.10
2019-05-13T20:43:32.820Z,56.64
2019-05-13T20:46:06.696Z,56.89
2019-05-13T20:48:36.048Z,57.15
2019-05-13T20:51:05.253Z,57.34
2019-05-13T20:53:34.650Z,57.73
2019-05-13T20:56:04.090Z,58.20
2019-05-13T20:58:33.363Z,58.64
2019-05-13T21:01:05.800Z,59.17
2019-05-13T21:03:37.886Z,59.22
2019-05-13T21:06:07.247Z,59.69
2019-05-13T21:08:36.580Z,59.96
2019-05-13T21:11:05.832Z,60.05
2019-05-13T21:13:38.094Z,60.33
2019-05-13T21:16:07.778Z,60.43
2019-05-13T21:18:37.238Z,60.81
2019-05-13T21:21:06.745Z,60.97
2019-05-13T21:23:35.962Z,61.23
2019-05-13T21:26:05.279Z,61.35
2019-05-13T21:28:34.923Z,61.61
2019-05-13T21:31:04.148Z,61.62
2019-05-13T21:33:33.403Z,62.05
2019-05-13T21:36:02.828Z,62.18
2019-05-13T21:38:32.582Z,63.00
2019-05-13T21:41:01.876Z,63.15
2019-05-13T21:43:32.403Z,63.04
2019-05-13T21:46:02.311Z,63.23
2019-05-13T21:48:32.661Z,63.49
2019-05-13T21:51:01.958Z,63.58
2019-05-13T21:53:32.601Z,63.66
2019-05-13T21:56:02.601Z,63.92
2019-05-13T21:58:32.084Z,64.34
2019-05-13T22:01:02.271Z,64.32
2019-05-13T22:03:33.568Z,64.44
2019-05-13T22:06:02.726Z,64.99
2019-05-13T22:08:32.235Z,65.21
2019-05-13T22:11:02.095Z,65.54
2019-05-13T22:13:31.726Z,65.50
2019-05-13T22:16:01.733Z,65.41
2019-05-13T22:18:31.741Z,65.40
2019-05-13T22:21:01.553Z,65.79
2019-05-13T22:23:32.197Z,66.14
2019-05-13T22:26:02.029Z,66.32
2019-05-13T22:28:31.566Z,66.36
2019-05-13T22:31:01.622Z,66.72
2019-05-13T22:33:32.386Z,67.27
2019-05-13T22:36:02.122Z,67.21
2019-05-13T22:38:32.297Z,67.22
2019-05-13T22:41:02.028Z,67.43
2019-05-13T22:43:31.970Z,67.79
2019-05-13T22:46:01.808Z,67.76
2019-05-13T22:48:31.936Z,67.86
2019-05-13T22:51:01.762Z,68.24
2019-05-13T22:53:31.841Z,68.16
2019-05-13T22:56:01.665Z,68.33
2019-05-13T22:58:32.158Z,68.81
2019-05-13T23:01:02.495Z,68.70
2019-05-13T23:03:32.606Z,69.01
2019-05-13T23:06:02.660Z,69.11
2019-05-13T23:08:32.558Z,69.28
2019-05-13T23:11:02.661Z,69.38
2019-05-13T23:13:31.876Z,69.85
2019-05-13T23:16:02.475Z,70.23
2019-05-13T23:18:32.000Z,69.88
2019-05-13T23:21:02.348Z,69.83
2019-05-13T23:23:31.833Z,69.92
2019-05-13T23:26:01.818Z,69.88
2019-05-13T23:28:32.298Z,69.84
2019-05-13T23:31:01.834Z,69.97
2019-05-13T23:33:31.610Z,70.19
2019-05-13T23:36:01.523Z,70.26
2019-05-13T23:38:31.876Z,70.18
2019-05-13T23:41:03.862Z,70.22
2019-05-13T23:43:33.079Z,70.52
2019-05-13T23:46:02.290Z,70.87
2019-05-13T23:48:32.182Z,71.08
2019-05-13T23:51:01.574Z,70.99
2019-05-13T23:53:31.498Z,71.31
2019-05-13T23:56:02.096Z,71.14
2019-05-13T23:58:32.581Z,71.21
